Fort Bidwell, CA

2:57 AM PDT on September 15, 2014 (GMT -0700)
KCAFORTB4 | Change Station
CLOSE
Current Station
Personal Weather Station
Location: Fort Bidwell, CA
Elevation: 4777 ft
Nearby Weather Stations

Elev 4777 ft 41.87 °N, 120.16 °W | Updated 3 minutes ago

Clear
Clear
62.9 °F
Feels Like 62.9 °F
N
0.0
Wind Variable Wind from South
Gusts 4.0 mph

Today
High -- | Low -- °F
--% Chance of Precip.
Yesterday
High -- | Low -- °F
Precip. -- in
6:40 AM 7:09 PM
Waning Gibbous, 57% visible
Pressure 30.10 in
Visibility 10.0 miles
Clouds Clear
Dew Point 33 °F
Humidity 33%
Rainfall 0.00 in
Snow Depth Not available.
UV 0.0 out of 12
Pollen 4.30 out of 12
Air Quality Not available.
Flu Activity Not available.
METAR KLKV 150935Z AUTO 35005KT 10SM CLR 06/M03 A3010 RMK AO1

More Conditions Fewer Conditions

Pressure 30.10 in
Visibility 10.0 miles
Clouds Clear
Dew Point 33 °F
Humidity 33%
Rainfall 0.00 in
Snow Depth Not available.
UV 0.0 out of 12
Pollen 4.30 out of 12
Air Quality Not available.
Flu Activity Not available.
METAR KLKV 150935Z AUTO 35005KT 10SM CLR 06/M03 A3010 RMK AO1

More Conditions Fewer Conditions

10-Day Weather Forecast

Almanac

Astronomy

Sep. 15, 2014 Rise Set
Actual Time 6:40 AM PDT 7:09 PM PDT
Civil Twilight 6:12 AM PDT 7:37 PM PDT
Nautical Twilight 5:39 AM PDT 8:10 PM PDT
Astronomical Twilight 5:05 AM PDT 8:44 PM PDT
Moon 11:51 PM PDT 1:50 PM PDT
Length of Visible Light 13h 24m
Length of Day
12h 29m
Tomorrow will be 2m 47s shorter.
Waning Gibbous, 57% of the Moon is Illuminated
Today
Waning Gibbous
Sep 15
Last Quarter
Sep 24
New
Oct 1
First Quarter
Oct 8
Full

Today's Extremes

State Highs State Lows

Community

WunderPhotos

Upload Photos

1,753,427 photos uploaded!

Nearby

Snow Depth

Station Depth Elevation
Cedar Pass 0 in 7100 ft
Adin Mountain 1 in 6200 ft
CSS Lab 3 in 6900 ft
Tahoe City Cross 0 in 6750 ft
Rubicon #2 0 in 7500 ft

Earthquake Activity

City Distance Mag. Time & Date
Lakeview, Oregon 24 miles 2.6 11:21 PM PDT
2014-09-14
Lakeview, Oregon 24 miles 3.5 9:20 PM PDT
2014-09-14
Lakeview, Oregon 24 miles 2.8 7:48 PM PDT
2014-09-14
Minimum magnitude displayed is 2.5.

Coastal Water Temperatures

Place Temperature
No Stations Reporting

Nearby Weather Stations